Time;durP1;ratioP1;P1;durP2;ratioP2;P2;SDS_P1;SDS_P2;PMS_P1;PMS_P2;Temp;Humidity;BMP_temperature;BMP_pressure;BME280_temperature;BME280_humidity;BME280_pressure;Samples;Min_cycle;Max_cycle;Signal;HPM_P1;HPM_P2
2023/01/04 00:01:30;;;;;;;12.10;9.75;;;4.70;1.00;;;;;;6247069;23;20229;-76
2023/01/04 00:03:58;;;;;;;16.25;9.45;;;4.60;1.00;;;;;;6247267;23;20178;-76
2023/01/04 00:06:25;;;;;;;15.73;9.95;;;4.60;1.00;;;;;;6246992;23;20185;-76
2023/01/04 00:08:53;;;;;;;12.60;9.70;;;4.60;1.00;;;;;;6246634;22;20206;-77
2023/01/04 00:11:22;;;;;;;12.13;10.50;;;4.60;1.00;;;;;;6246719;23;20194;-77
2023/01/04 00:13:51;;;;;;;19.13;11.30;;;4.60;1.00;;;;;;6246733;23;20181;-77
2023/01/04 00:16:20;;;;;;;11.27;9.57;;;4.50;1.00;;;;;;6246633;23;20175;-76
2023/01/04 00:18:47;;;;;;;15.05;9.95;;;4.50;1.00;;;;;;6246893;22;20194;-77
2023/01/04 00:21:16;;;;;;;13.80;8.75;;;4.40;1.00;;;;;;6246662;23;20556;-77
2023/01/04 00:23:46;;;;;;;17.08;10.43;;;4.40;1.00;;;;;;6246281;23;20183;-77
2023/01/04 00:26:15;;;;;;;12.68;9.13;;;4.40;1.00;;;;;;6246747;23;20261;-77
2023/01/04 00:28:42;;;;;;;14.43;9.65;;;4.30;1.00;;;;;;6246167;22;20703;-77
2023/01/04 00:31:11;;;;;;;14.98;9.25;;;4.40;1.00;;;;;;6246444;23;20719;-76
2023/01/04 00:33:39;;;;;;;11.13;9.27;;;4.40;1.00;;;;;;6246661;23;20182;-76
2023/01/04 00:36:07;;;;;;;12.18;8.25;;;4.40;1.00;;;;;;6246206;23;20175;-77
2023/01/04 00:38:36;;;;;;;9.68;7.10;;;4.30;1.00;;;;;;6246214;22;20195;-77
2023/01/04 00:41:05;;;;;;;12.35;8.82;;;4.40;1.00;;;;;;6246118;23;20516;-76
2023/01/04 00:43:32;;;;;;;10.63;8.35;;;4.40;1.00;;;;;;6246481;23;20262;-76
2023/01/04 00:46:00;;;;;;;10.48;8.90;;;4.50;1.00;;;;;;6246543;23;20175;-77
2023/01/04 00:48:27;;;;;;;15.13;8.93;;;4.40;1.00;;;;;;6246026;22;20202;-76
2023/01/04 00:50:53;;;;;;;14.18;8.50;;;4.40;1.00;;;;;;6246017;23;20278;-76
2023/01/04 00:53:20;;;;;;;11.15;7.95;;;4.40;1.00;;;;;;6246503;23;20179;-76
2023/01/04 00:55:49;;;;;;;13.55;8.95;;;4.20;1.00;;;;;;6246240;23;20258;-76
2023/01/04 00:58:15;;;;;;;9.77;7.65;;;4.60;1.00;;;;;;6254910;22;20182;-76
2023/01/04 01:00:43;;;;;;;9.80;8.07;;;4.40;1.00;;;;;;6247673;23;20177;-76
2023/01/04 01:03:09;;;;;;;11.52;8.32;;;4.40;1.00;;;;;;6246675;23;20257;-77
2023/01/04 01:05:36;;;;;;;9.10;7.35;;;4.40;1.00;;;;;;6246667;23;20180;-77
2023/01/04 01:08:23;;;;;;;8.95;7.28;;;4.70;1.00;;;;;;6246419;22;20181;-76
2023/01/04 01:10:51;;;;;;;10.88;8.50;;;4.40;1.00;;;;;;6246504;23;20182;-76
2023/01/04 01:13:19;;;;;;;9.35;8.30;;;4.50;1.00;;;;;;6246915;23;20181;-76
2023/01/04 01:15:46;;;;;;;9.70;7.57;;;4.40;1.00;;;;;;6247898;23;20564;-76
2023/01/04 01:18:13;;;;;;;8.70;6.93;;;4.30;1.00;;;;;;6250578;22;20213;-76
2023/01/04 01:20:44;;;;;;;10.10;7.90;;;4.50;1.00;;;;;;6249435;23;20174;-77
2023/01/04 01:23:12;;;;;;;9.90;7.20;;;4.50;1.00;;;;;;6246860;23;20174;-76
2023/01/04 01:25:40;;;;;;;8.63;6.47;;;4.50;1.00;;;;;;6246960;23;20175;-76
2023/01/04 01:28:08;;;;;;;8.15;6.72;;;4.40;1.00;;;;;;6246379;22;20174;-76
2023/01/04 01:30:38;;;;;;;8.77;6.93;;;4.50;1.00;;;;;;6215218;23;20182;-77
2023/01/04 01:33:05;;;;;;;8.05;6.68;;;4.50;1.00;;;;;;6215754;23;20180;-76
2023/01/04 01:35:32;;;;;;;7.93;6.95;;;4.50;1.00;;;;;;6215710;23;20182;-76
2023/01/04 01:37:59;;;;;;;6.65;6.05;;;4.50;1.00;;;;;;6215372;23;20181;-76
2023/01/04 01:40:26;;;;;;;7.57;6.78;;;4.50;1.00;;;;;;6215697;23;20258;-76
2023/01/04 01:42:53;;;;;;;7.15;6.38;;;4.50;1.00;;;;;;6215713;23;20258;-76
2023/01/04 01:45:29;;;;;;;6.82;5.90;;;4.40;1.00;;;;;;6215534;23;20180;-75
2023/01/04 01:48:01;;;;;;;7.35;6.60;;;4.40;1.00;;;;;;6215479;23;20169;-76
2023/01/04 01:50:31;;;;;;;12.98;7.60;;;4.40;1.00;;;;;;6215392;23;20170;-76
2023/01/04 01:53:00;;;;;;;8.77;7.03;;;4.40;1.00;;;;;;6215364;23;20278;-75
2023/01/04 01:55:30;;;;;;;7.50;6.45;;;4.40;1.00;;;;;;6215887;23;20277;-76
2023/01/04 01:57:58;;;;;;;8.68;6.10;;;4.40;1.00;;;;;;6215562;23;20179;-75
2023/01/04 02:00:28;;;;;;;12.95;7.63;;;4.40;1.00;;;;;;6216019;23;20203;-76
2023/01/04 02:03:02;;;;;;;7.43;6.30;;;4.40;1.00;;;;;;6215359;23;20648;-75
2023/01/04 02:05:31;;;;;;;11.32;7.32;;;4.40;1.00;;;;;;6215286;23;20201;-76
2023/01/04 02:07:58;;;;;;;8.80;6.88;;;4.40;1.00;;;;;;6215570;23;20175;-76
2023/01/04 02:10:26;;;;;;;7.22;6.18;;;4.40;1.00;;;;;;6215578;23;20175;-75
2023/01/04 02:12:52;;;;;;;7.30;6.60;;;4.40;1.00;;;;;;6215621;23;20258;-75
2023/01/04 02:15:21;;;;;;;7.75;7.03;;;4.50;1.00;;;;;;6215826;23;20175;-75
2023/01/04 02:17:58;;;;;;;6.43;5.82;;;4.50;1.00;;;;;;6215440;23;20319;-76
2023/01/04 02:20:38;;;;;;;7.03;6.32;;;4.40;1.00;;;;;;6215105;23;20703;-76
2023/01/04 02:23:53;;;;;;;7.45;5.75;;;4.40;1.00;;;;;;6215355;23;20160;-75
2023/01/04 02:26:46;;;;;;;7.32;6.28;;;4.50;1.00;;;;;;6215597;23;20182;-76
2023/01/04 02:29:39;;;;;;;8.35;6.70;;;4.10;1.00;;;;;;6231648;22;20531;-80
2023/01/04 02:32:12;;;;;;;9.73;6.63;;;4.40;1.00;;;;;;6268559;22;20190;-79
2023/01/04 02:34:47;;;;;;;9.13;6.32;;;4.40;1.00;;;;;;6269776;22;20178;-82
2023/01/04 02:37:24;;;;;;;9.45;6.68;;;4.30;1.00;;;;;;6264002;23;20169;-83
2023/01/04 02:40:03;;;;;;;8.68;6.95;;;4.30;1.00;;;;;;6246286;23;20686;-82
2023/01/04 02:45:29;;;;;;;11.75;6.75;;;4.40;1.00;;;;;;6236085;23;20163;-79
2023/01/04 02:50:53;;;;;;;6.53;5.85;;;4.30;1.00;;;;;;6241421;23;20243;-80
2023/01/04 02:53:23;;;;;;;6.32;5.72;;;4.30;1.00;;;;;;6236668;23;20160;-81
2023/01/04 02:55:58;;;;;;;7.07;5.45;;;4.10;1.00;;;;;;6231738;23;20195;-82
2023/01/04 02:58:46;;;;;;;6.78;5.90;;;4.00;1.00;;;;;;6230404;23;20165;-81
2023/01/04 03:07:12;;;;;;;8.82;6.78;;;3.90;1.00;;;;;;6231596;23;20178;-81
2023/01/04 03:09:45;;;;;;;9.20;6.45;;;4.00;1.00;;;;;;6231960;23;20607;-81
2023/01/04 03:12:31;;;;;;;11.75;7.32;;;4.10;1.00;;;;;;6231088;23;20222;-80
2023/01/04 03:15:08;;;;;;;6.93;6.20;;;4.20;1.00;;;;;;6232411;23;20187;-82
2023/01/04 03:17:41;;;;;;;10.60;6.80;;;4.10;1.00;;;;;;6232798;23;20164;-81
2023/01/04 03:20:12;;;;;;;6.57;5.88;;;4.20;1.00;;;;;;6231052;23;20199;-81
2023/01/04 03:36:47;;;;;;;11.50;6.97;;;4.10;1.00;;;;;;6270831;23;20174;-82
2023/01/04 03:50:49;;;;;;;8.98;6.90;;;4.00;1.00;;;;;;6263403;22;20256;-80
2023/01/04 03:53:18;;;;;;;8.00;5.75;;;4.00;1.00;;;;;;6263246;23;20273;-80
2023/01/04 03:55:46;;;;;;;6.55;5.82;;;4.10;1.00;;;;;;6263382;23;20221;-80
2023/01/04 03:58:13;;;;;;;8.38;6.80;;;4.10;1.00;;;;;;6264041;23;20206;-80
2023/01/04 04:00:40;;;;;;;9.85;7.45;;;4.00;1.00;;;;;;6260564;22;20203;-80
2023/01/04 04:03:11;;;;;;;9.82;6.63;;;4.00;1.00;;;;;;6261461;23;20175;-80
2023/01/04 04:08:27;;;;;;;7.70;6.60;;;4.10;1.00;;;;;;6261895;23;20161;-80
2023/01/04 04:10:55;;;;;;;10.30;6.53;;;4.10;1.00;;;;;;6260664;23;20461;-80
2023/01/04 04:13:22;;;;;;;10.10;6.93;;;4.00;1.00;;;;;;6261871;23;20237;-79
2023/01/04 04:15:51;;;;;;;8.13;6.80;;;4.00;1.00;;;;;;6260344;23;20175;-79
2023/01/04 04:18:18;;;;;;;6.20;5.60;;;4.00;1.00;;;;;;6261535;23;20262;-79
2023/01/04 04:20:45;;;;;;;7.68;6.05;;;4.00;1.00;;;;;;6260588;22;20309;-78
2023/01/04 04:23:12;;;;;;;8.23;5.70;;;4.00;1.00;;;;;;6261440;23;20209;-80
2023/01/04 04:25:40;;;;;;;7.30;6.10;;;4.00;1.00;;;;;;6261004;23;20234;-81
2023/01/04 04:28:07;;;;;;;8.40;7.30;;;4.00;1.00;;;;;;6261484;23;20201;-79
2023/01/04 04:30:34;;;;;;;7.43;6.50;;;4.10;1.00;;;;;;6264831;22;20737;-79
2023/01/04 04:33:01;;;;;;;8.02;6.60;;;4.00;1.00;;;;;;6254244;23;20198;-80
2023/01/04 04:35:28;;;;;;;6.93;6.25;;;4.10;1.00;;;;;;6257003;23;20230;-80
2023/01/04 04:37:54;;;;;;;8.05;6.78;;;4.00;1.00;;;;;;6260306;23;20257;-80
2023/01/04 04:43:09;;;;;;;6.28;5.65;;;4.30;1.00;;;;;;6260720;23;20158;-79
2023/01/04 04:45:36;;;;;;;7.40;6.50;;;4.00;1.00;;;;;;6259514;23;20163;-80
2023/01/04 04:48:03;;;;;;;9.65;6.38;;;4.10;1.00;;;;;;6260667;23;20185;-79
2023/01/04 04:50:30;;;;;;;7.07;5.68;;;4.10;1.00;;;;;;6261474;22;20277;-79
2023/01/04 04:52:57;;;;;;;10.85;7.40;;;4.10;1.00;;;;;;6260939;23;20226;-79
2023/01/04 04:55:24;;;;;;;7.00;6.30;;;4.10;1.00;;;;;;6260630;23;20254;-81
2023/01/04 04:57:51;;;;;;;6.55;5.95;;;4.20;1.00;;;;;;6265138;23;20178;-81
2023/01/04 05:00:19;;;;;;;7.15;5.35;;;4.20;1.00;;;;;;6262974;22;20273;-81
2023/01/04 05:02:46;;;;;;;8.63;6.63;;;4.20;1.00;;;;;;6272167;23;20193;-80
2023/01/04 05:05:13;;;;;;;6.50;5.82;;;4.10;1.00;;;;;;6273319;23;20174;-79
2023/01/04 05:07:39;;;;;;;10.73;5.90;;;4.20;1.00;;;;;;6273525;23;20198;-80
2023/01/04 05:10:07;;;;;;;8.07;6.15;;;4.20;1.00;;;;;;6267448;22;20222;-80
2023/01/04 05:15:19;;;;;;;7.80;5.90;;;4.30;1.00;;;;;;6260282;23;20773;-80
2023/01/04 05:17:46;;;;;;;6.82;5.03;;;4.40;1.00;;;;;;6261101;23;20217;-80
2023/01/04 05:20:13;;;;;;;10.93;5.60;;;4.50;1.00;;;;;;6260645;22;20205;-80
2023/01/04 05:22:40;;;;;;;6.05;5.55;;;4.50;1.00;;;;;;6260763;23;20175;-80
2023/01/04 05:25:08;;;;;;;6.75;6.07;;;4.50;1.00;;;;;;6259793;23;20179;-80
2023/01/04 05:27:36;;;;;;;8.45;6.65;;;4.60;1.00;;;;;;6261630;23;20175;-80
2023/01/04 05:32:49;;;;;;;6.00;5.40;;;4.60;1.00;;;;;;6261667;23;20189;-79
2023/01/04 05:35:16;;;;;;;6.47;5.68;;;4.60;1.00;;;;;;6261399;23;20261;-79
2023/01/04 05:37:43;;;;;;;5.45;4.95;;;4.70;1.00;;;;;;6260769;23;20253;-79
2023/01/04 05:40:10;;;;;;;9.52;5.70;;;4.70;99.90;;;;;;6270360;22;20225;-79
2023/01/04 05:42:37;;;;;;;8.90;5.88;;;4.70;99.90;;;;;;6270451;23;20175;-80
2023/01/04 05:45:06;;;;;;;8.50;5.95;;;4.70;99.90;;;;;;6262226;23;20261;-80
2023/01/04 05:47:33;;;;;;;5.85;5.18;;;4.90;99.90;;;;;;6263077;23;20670;-80
2023/01/04 05:50:01;;;;;;;6.75;5.65;;;4.70;1.00;;;;;;6266696;22;20226;-81
2023/01/04 05:52:28;;;;;;;6.13;4.80;;;4.80;1.00;;;;;;6259951;23;20202;-81
2023/01/04 05:54:55;;;;;;;5.85;5.07;;;4.90;99.90;;;;;;6261376;23;20178;-81
2023/01/04 05:57:22;;;;;;;5.20;4.70;;;5.00;99.90;;;;;;6260064;23;20205;-82
2023/01/04 05:59:49;;;;;;;6.20;4.60;;;5.00;99.90;;;;;;6260130;22;20198;-80
2023/01/04 06:02:17;;;;;;;7.72;5.60;;;5.00;99.90;;;;;;6261000;23;20170;-80
2023/01/04 06:04:44;;;;;;;10.20;5.93;;;5.10;99.90;;;;;;6260564;23;20230;-80
2023/01/04 06:07:13;;;;;;;5.95;5.35;;;5.10;99.90;;;;;;6259990;23;20178;-80
2023/01/04 06:09:40;;;;;;;5.93;5.32;;;5.10;99.90;;;;;;6260234;22;20233;-80
2023/01/04 06:12:07;;;;;;;9.95;6.22;;;5.20;99.90;;;;;;6259393;23;20225;-80
2023/01/04 06:14:34;;;;;;;9.55;5.10;;;5.30;99.90;;;;;;6259621;23;20261;-80
2023/01/04 06:17:01;;;;;;;5.82;5.20;;;5.30;99.90;;;;;;6259324;23;20202;-79
2023/01/04 06:19:28;;;;;;;6.63;4.53;;;5.20;99.90;;;;;;6259165;22;20264;-81
2023/01/04 06:21:55;;;;;;;5.00;4.40;;;5.30;35.40;;;;;;6260257;23;20258;-80
2023/01/04 06:24:23;;;;;;;5.07;4.65;;;5.40;1.00;;;;;;6263233;23;20230;-80
2023/01/04 06:26:50;;;;;;;7.28;6.18;;;5.40;1.00;;;;;;6265770;23;20178;-80
2023/01/04 06:29:17;;;;;;;5.70;5.25;;;5.40;1.00;;;;;;6268087;22;20202;-80
2023/01/04 06:31:44;;;;;;;7.28;4.90;;;5.40;1.00;;;;;;6271710;22;20158;-78
2023/01/04 06:34:11;;;;;;;4.97;4.47;;;5.50;1.00;;;;;;6268511;23;20209;-80
2023/01/04 06:36:38;;;;;;;5.20;4.70;;;5.50;1.00;;;;;;6263380;23;20225;-80
2023/01/04 06:39:08;;;;;;;4.80;4.40;;;5.50;1.00;;;;;;6262927;22;20255;-81
2023/01/04 06:41:38;;;;;;;4.75;4.15;;;5.60;1.00;;;;;;6266166;23;20201;-79
2023/01/04 06:44:05;;;;;;;5.35;4.70;;;5.60;1.00;;;;;;6272475;23;20175;-78
2023/01/04 06:46:32;;;;;;;5.43;4.88;;;5.60;1.00;;;;;;6273565;23;20179;-79
2023/01/04 06:48:58;;;;;;;4.90;4.40;;;5.60;1.00;;;;;;6273439;22;20205;-79
2023/01/04 06:51:25;;;;;;;4.65;3.85;;;5.60;1.00;;;;;;6273346;23;20209;-78
2023/01/04 06:53:52;;;;;;;4.90;4.40;;;5.60;1.00;;;;;;6273226;23;20205;-78
2023/01/04 06:56:19;;;;;;;4.60;4.20;;;5.70;99.90;;;;;;6268561;23;20179;-80
2023/01/04 06:58:47;;;;;;;5.60;4.38;;;5.70;1.00;;;;;;6263557;22;20179;-80
2023/01/04 07:01:14;;;;;;;5.03;3.33;;;5.80;99.90;;;;;;6263777;23;20182;-80
2023/01/04 07:03:40;;;;;;;5.68;3.53;;;5.80;99.90;;;;;;6262829;23;20182;-80
2023/01/04 07:06:09;;;;;;;9.07;4.15;;;5.90;99.90;;;;;;6266000;23;20257;-80
2023/01/04 07:08:36;;;;;;;3.40;3.15;;;5.90;99.90;;;;;;6269217;22;20181;-80
2023/01/04 07:11:03;;;;;;;5.43;3.17;;;6.10;1.00;;;;;;6269507;23;20226;-79
2023/01/04 07:13:37;;;;;;;5.32;4.35;;;6.10;1.00;;;;;;6271468;23;20275;-79
2023/01/04 07:16:06;;;;;;;9.23;4.13;;;6.20;1.00;;;;;;6271389;23;20166;-80
2023/01/04 07:18:33;;;;;;;7.30;4.85;;;6.20;99.90;;;;;;6268329;22;20178;-81
2023/01/04 07:21:00;;;;;;;5.47;3.22;;;6.30;99.90;;;;;;6265786;23;20654;-81
2023/01/04 07:23:27;;;;;;;7.40;3.75;;;6.40;1.00;;;;;;6270282;23;20201;-80
2023/01/04 07:25:54;;;;;;;3.95;3.30;;;6.40;99.90;;;;;;6272233;22;20239;-79
2023/01/04 07:31:06;;;;;;;3.63;3.30;;;6.40;1.00;;;;;;6267119;23;20177;-80
2023/01/04 07:33:33;;;;;;;5.68;3.20;;;6.40;1.00;;;;;;6268394;23;20265;-79
2023/01/04 07:36:04;;;;;;;3.70;3.40;;;6.20;99.90;;;;;;6261759;23;20226;-80
2023/01/04 07:38:32;;;;;;;4.00;3.40;;;6.20;99.90;;;;;;6264163;22;20163;-78
2023/01/04 07:40:59;;;;;;;4.18;3.28;;;6.20;99.90;;;;;;6274283;23;20170;-78
2023/01/04 07:43:26;;;;;;;3.95;3.55;;;6.20;99.90;;;;;;6266492;23;20206;-80
2023/01/04 07:45:52;;;;;;;4.05;3.28;;;6.20;99.90;;;;;;6261746;23;20189;-79
2023/01/04 07:48:21;;;;;;;3.83;3.55;;;6.10;1.00;;;;;;6261046;23;20186;-79
2023/01/04 07:50:48;;;;;;;5.68;4.40;;;6.10;1.00;;;;;;6261554;22;20198;-80
2023/01/04 07:53:15;;;;;;;3.80;3.47;;;6.10;1.00;;;;;;6261528;23;20250;-79
2023/01/04 07:55:42;;;;;;;3.80;3.50;;;6.10;1.00;;;;;;6261406;23;20178;-80
2023/01/04 07:58:09;;;;;;;4.15;3.85;;;6.10;1.00;;;;;;6262247;23;20179;-78
2023/01/04 08:00:36;;;;;;;4.45;3.95;;;6.20;1.00;;;;;;6257144;22;20241;-80
2023/01/04 08:03:03;;;;;;;5.03;4.53;;;6.00;1.00;;;;;;6257212;23;20223;-78
2023/01/04 08:05:33;;;;;;;4.38;3.55;;;6.00;1.00;;;;;;6259285;23;20181;-80
2023/01/04 08:08:00;;;;;;;4.15;3.70;;;6.00;1.00;;;;;;6260290;23;20215;-79
2023/01/04 08:10:27;;;;;;;4.20;3.80;;;6.00;1.00;;;;;;6259120;22;20210;-80
2023/01/04 08:12:53;;;;;;;6.28;4.32;;;6.00;1.00;;;;;;6260433;23;20273;-80
2023/01/04 08:15:20;;;;;;;5.10;4.60;;;6.00;1.00;;;;;;6261151;23;20178;-80
2023/01/04 08:17:47;;;;;;;9.40;5.50;;;6.10;1.00;;;;;;6260804;23;20179;-80
2023/01/04 08:20:14;;;;;;;5.80;4.35;;;6.00;1.00;;;;;;6260685;22;20254;-80
2023/01/04 08:22:42;;;;;;;6.85;4.50;;;6.00;1.00;;;;;;6261286;23;20253;-81
2023/01/04 08:25:10;;;;;;;5.07;3.60;;;5.90;6.00;;;;;;6260962;23;20181;-80
2023/01/04 08:27:37;;;;;;;4.07;3.65;;;6.00;1.00;;;;;;6260657;23;20201;-80
2023/01/04 08:30:05;;;;;;;5.30;4.80;;;5.90;58.40;;;;;;6260150;22;20261;-79
2023/01/04 08:32:31;;;;;;;11.98;4.57;;;6.10;1.00;;;;;;6279896;22;20181;-78
2023/01/04 08:34:58;;;;;;;5.32;4.93;;;6.10;18.60;;;;;;6279540;22;20217;-80
2023/01/04 08:37:25;;;;;;;9.70;4.43;;;6.10;41.40;;;;;;6280241;22;20230;-79
2023/01/04 08:39:55;;;;;;;4.72;4.10;;;5.90;99.90;;;;;;6279491;22;20199;-77
2023/01/04 08:42:22;;;;;;;7.68;4.35;;;6.20;99.90;;;;;;6260348;23;20159;-79
2023/01/04 08:44:49;;;;;;;9.77;6.25;;;6.20;99.90;;;;;;6258594;23;20257;-78
2023/01/04 08:47:16;;;;;;;5.90;4.65;;;6.20;99.90;;;;;;6259889;23;20174;-77
2023/01/04 08:49:43;;;;;;;11.07;5.38;;;6.20;99.90;;;;;;6254432;22;20210;-77
2023/01/04 08:52:10;;;;;;;5.32;4.82;;;6.50;99.90;;;;;;6257254;23;20206;-78
2023/01/04 08:54:37;;;;;;;5.00;4.25;;;6.30;99.90;;;;;;6255961;23;20205;-78
2023/01/04 08:57:05;;;;;;;8.02;5.55;;;6.30;99.90;;;;;;6248389;23;20217;-78
2023/01/04 08:59:32;;;;;;;5.32;4.60;;;6.30;99.90;;;;;;6249040;22;20595;-78
2023/01/04 09:01:59;;;;;;;5.00;4.50;;;6.40;99.90;;;;;;6249213;23;20174;-77
2023/01/04 09:04:26;;;;;;;8.63;4.78;;;6.30;99.90;;;;;;6248914;23;20262;-78
2023/01/04 09:06:52;;;;;;;6.28;5.28;;;6.30;99.90;;;;;;6249167;23;20179;-78
2023/01/04 09:09:19;;;;;;;5.15;4.60;;;6.20;99.90;;;;;;6248922;22;20174;-77
2023/01/04 09:11:46;;;;;;;7.40;4.25;;;6.40;99.90;;;;;;6246807;23;20179;-77
2023/01/04 09:14:14;;;;;;;5.72;5.22;;;6.40;99.90;;;;;;6247616;23;20504;-77
2023/01/04 09:16:41;;;;;;;6.45;4.53;;;6.30;99.90;;;;;;6248490;23;20175;-77
2023/01/04 09:19:08;;;;;;;8.48;5.18;;;6.30;99.90;;;;;;6248400;22;20179;-78
2023/01/04 09:21:35;;;;;;;8.55;4.90;;;6.20;99.90;;;;;;6249126;23;20183;-78
2023/01/04 09:24:02;;;;;;;5.20;4.70;;;6.40;99.90;;;;;;6248674;23;20696;-77
2023/01/04 09:26:28;;;;;;;7.25;5.45;;;6.40;99.90;;;;;;6249065;23;20182;-78
2023/01/04 09:28:56;;;;;;;7.43;5.22;;;6.40;99.90;;;;;;6251927;23;20210;-78
2023/01/04 09:31:26;;;;;;;11.13;5.80;;;6.50;99.90;;;;;;6258160;22;20206;-78
2023/01/04 09:33:54;;;;;;;9.95;5.00;;;6.50;99.90;;;;;;6253764;23;20198;-78
2023/01/04 09:36:22;;;;;;;5.22;4.82;;;6.50;99.90;;;;;;6255938;23;20178;-78
2023/01/04 09:38:50;;;;;;;7.05;5.10;;;6.50;99.90;;;;;;6247712;23;20254;-78
2023/01/04 09:41:24;;;;;;;10.43;6.65;;;6.50;99.90;;;;;;6247567;22;20194;-78
2023/01/04 09:43:53;;;;;;;6.32;5.72;;;6.50;99.90;;;;;;6247689;23;20193;-78
2023/01/04 09:46:30;;;;;;;6.72;4.90;;;6.60;99.90;;;;;;6247775;23;20174;-78
2023/01/04 09:49:13;;;;;;;6.93;5.65;;;6.60;99.90;;;;;;6248895;23;20169;-78
2023/01/04 09:51:45;;;;;;;7.90;5.97;;;6.60;99.90;;;;;;6250717;23;20265;-78
2023/01/04 09:54:17;;;;;;;6.85;5.13;;;6.50;1.00;;;;;;6249718;23;20179;-78
2023/01/04 09:56:49;;;;;;;7.13;5.72;;;6.60;99.90;;;;;;6249074;23;20217;-78
2023/01/04 09:59:21;;;;;;;9.52;6.65;;;6.50;1.00;;;;;;6248284;22;20229;-77
2023/01/04 10:01:53;;;;;;;9.07;7.18;;;6.60;99.90;;;;;;6248895;23;20551;-77
2023/01/04 10:04:25;;;;;;;6.60;5.90;;;6.60;99.90;;;;;;6252601;23;20155;-78
2023/01/04 10:06:53;;;;;;;7.53;6.28;;;6.60;99.90;;;;;;6251475;23;20163;-78
2023/01/04 10:09:20;;;;;;;10.75;6.05;;;6.70;1.00;;;;;;6251282;22;20212;-78
2023/01/04 10:12:08;;;;;;;9.85;5.72;;;6.70;1.00;;;;;;6262215;23;20225;-78
2023/01/04 10:14:55;;;;;;;7.00;5.65;;;6.70;1.00;;;;;;6259698;23;20261;-78
2023/01/04 10:17:46;;;;;;;6.95;5.45;;;6.50;1.00;;;;;;6259568;23;20193;-78
2023/01/04 10:20:37;;;;;;;10.65;5.20;;;6.70;1.00;;;;;;6263752;22;20230;-77
2023/01/04 10:23:11;;;;;;;7.07;6.30;;;6.70;1.00;;;;;;6259545;23;20190;-78
2023/01/04 10:25:47;;;;;;;9.65;6.28;;;6.70;1.00;;;;;;6252863;23;20325;-78
2023/01/04 10:28:29;;;;;;;8.57;5.43;;;6.70;1.00;;;;;;6249689;23;20163;-78
2023/01/04 10:31:02;;;;;;;6.65;5.80;;;6.70;1.00;;;;;;6249452;22;20281;-78
2023/01/04 10:33:39;;;;;;;8.63;6.63;;;6.70;1.00;;;;;;6253378;23;20217;-77
2023/01/04 10:36:16;;;;;;;9.23;7.45;;;6.70;1.00;;;;;;6252332;23;20651;-77
2023/01/04 10:38:44;;;;;;;7.78;6.63;;;6.80;1.00;;;;;;6253942;23;20201;-77
2023/01/04 10:41:20;;;;;;;6.72;6.00;;;6.80;1.00;;;;;;6250912;22;20696;-77
2023/01/04 10:43:52;;;;;;;6.85;5.85;;;6.80;1.00;;;;;;6249473;23;20213;-77
2023/01/04 10:46:29;;;;;;;9.35;5.20;;;7.00;1.00;;;;;;6249525;23;20226;-78
2023/01/04 10:49:06;;;;;;;6.22;5.63;;;6.80;1.00;;;;;;6250836;23;20163;-78
2023/01/04 10:51:40;;;;;;;5.85;5.07;;;6.80;1.00;;;;;;6248405;23;20480;-77
2023/01/04 10:54:16;;;;;;;7.82;6.35;;;6.80;1.00;;;;;;6247616;23;20183;-77
2023/01/04 10:56:50;;;;;;;7.75;6.47;;;6.80;1.00;;;;;;6250197;23;20212;-78
2023/01/04 10:59:21;;;;;;;7.45;6.32;;;6.80;1.00;;;;;;6251283;22;20165;-78
2023/01/04 11:01:53;;;;;;;7.88;6.65;;;6.80;1.00;;;;;;6254069;23;20626;-78
2023/01/04 11:04:25;;;;;;;7.13;5.95;;;6.90;1.00;;;;;;6254756;23;20237;-78
2023/01/04 11:07:00;;;;;;;6.07;5.47;;;6.90;1.00;;;;;;6252434;23;20197;-78
2023/01/04 11:09:35;;;;;;;8.68;6.40;;;6.90;1.00;;;;;;6250857;22;20194;-78
2023/01/04 11:12:03;;;;;;;8.65;6.30;;;6.90;1.00;;;;;;6250490;23;20169;-78
2023/01/04 11:14:30;;;;;;;7.15;6.45;;;6.90;1.00;;;;;;6250984;23;20199;-78
2023/01/04 11:17:00;;;;;;;6.45;5.68;;;7.00;1.00;;;;;;6251087;23;20179;-78
2023/01/04 11:19:29;;;;;;;12.68;5.95;;;7.00;1.00;;;;;;6256034;22;20199;-79
2023/01/04 11:22:00;;;;;;;11.32;7.15;;;7.00;1.00;;;;;;6255439;23;20555;-78
2023/01/04 11:24:31;;;;;;;7.75;6.32;;;7.00;1.00;;;;;;6257614;23;20181;-81
2023/01/04 11:27:00;;;;;;;9.60;6.80;;;7.00;1.00;;;;;;6256122;23;20219;-82
2023/01/04 11:29:33;;;;;;;6.45;4.90;;;7.10;1.00;;;;;;6253284;22;20282;-82
2023/01/04 11:32:05;;;;;;;6.57;5.35;;;7.00;1.00;;;;;;6251567;23;20246;-83
2023/01/04 11:34:50;;;;;;;5.47;4.97;;;7.10;1.00;;;;;;6253301;23;20183;-82
2023/01/04 11:37:26;;;;;;;6.25;5.15;;;7.20;1.00;;;;;;6253020;23;20163;-83
2023/01/04 11:40:21;;;;;;;5.18;4.68;;;7.10;1.00;;;;;;6252002;22;20357;-78
2023/01/04 11:42:50;;;;;;;5.57;4.80;;;7.30;1.00;;;;;;6254525;23;20162;-79
2023/01/04 11:45:21;;;;;;;4.90;4.40;;;7.30;1.00;;;;;;6260462;23;20181;-79
2023/01/04 11:47:49;;;;;;;8.48;4.78;;;7.30;1.00;;;;;;6265180;23;20170;-79
2023/01/04 11:50:41;;;;;;;6.05;5.45;;;7.40;1.00;;;;;;6253312;22;20226;-79
2023/01/04 11:53:30;;;;;;;14.43;6.60;;;7.30;1.00;;;;;;6249752;23;20158;-80
2023/01/04 11:56:16;;;;;;;8.55;5.47;;;7.40;1.00;;;;;;6256435;23;20159;-78
2023/01/04 11:58:44;;;;;;;9.48;5.35;;;7.40;1.00;;;;;;6257025;23;20165;-78
2023/01/04 12:01:23;;;;;;;4.93;3.95;;;7.40;1.00;;;;;;6260796;22;20254;-78
2023/01/04 12:03:50;;;;;;;4.18;3.88;;;7.40;1.00;;;;;;6262330;23;20198;-80
2023/01/04 12:06:22;;;;;;;5.97;5.05;;;7.50;1.00;;;;;;6260770;23;20178;-80
2023/01/04 12:08:49;;;;;;;9.27;6.68;;;7.50;1.00;;;;;;6261198;23;20191;-78
2023/01/04 12:11:22;;;;;;;8.80;5.57;;;7.50;1.00;;;;;;6260537;22;20238;-77
2023/01/04 12:13:49;;;;;;;6.15;5.00;;;7.60;1.00;;;;;;6260482;23;20213;-78
2023/01/04 12:16:27;;;;;;;6.18;4.03;;;7.60;1.00;;;;;;6254057;23;20179;-78
2023/01/04 12:18:55;;;;;;;4.70;4.18;;;7.60;1.00;;;;;;6258685;23;20162;-79
2023/01/04 12:21:25;;;;;;;6.57;4.50;;;7.50;1.00;;;;;;6259441;22;20205;-78
2023/01/04 12:23:53;;;;;;;5.35;4.20;;;7.70;1.00;;;;;;6257626;23;20163;-78
2023/01/04 12:26:22;;;;;;;4.57;3.95;;;7.70;1.00;;;;;;6253160;23;20501;-78
2023/01/04 12:28:52;;;;;;;5.18;4.30;;;7.70;1.00;;;;;;6250137;23;20193;-79
2023/01/04 12:31:30;;;;;;;3.93;3.53;;;7.70;1.00;;;;;;6250670;22;20206;-79
2023/01/04 12:33:58;;;;;;;4.10;3.70;;;7.70;1.00;;;;;;6250706;23;20424;-79
2023/01/04 12:36:55;;;;;;;4.72;4.10;;;7.70;1.00;;;;;;6251573;23;20174;-78
2023/01/04 12:39:40;;;;;;;6.70;4.90;;;7.80;1.00;;;;;;6251719;22;20295;-78
2023/01/04 12:42:23;;;;;;;7.45;4.50;;;7.80;1.00;;;;;;6252972;23;20389;-78
2023/01/04 12:45:17;;;;;;;4.03;3.67;;;7.80;1.00;;;;;;6251987;23;20159;-78
2023/01/04 12:50:31;;;;;;;5.40;4.90;;;7.80;1.00;;;;;;6250490;22;20197;-79
2023/01/04 12:53:04;;;;;;;4.40;3.90;;;7.80;1.00;;;;;;6250951;23;20474;-78
2023/01/04 12:55:58;;;;;;;5.70;4.82;;;7.70;1.00;;;;;;6249222;23;20179;-79
2023/01/04 12:59:06;;;;;;;4.75;3.70;;;7.70;1.00;;;;;;6250615;23;20190;-79
2023/01/04 13:01:34;;;;;;;4.75;4.32;;;7.70;1.00;;;;;;6230229;23;20178;-79
2023/01/04 13:04:03;;;;;;;4.32;4.00;;;7.70;1.00;;;;;;6252409;23;20178;-79
2023/01/04 13:06:35;;;;;;;4.40;4.10;;;7.70;1.00;;;;;;6250252;23;20167;-80
2023/01/04 13:09:15;;;;;;;8.93;5.30;;;7.90;1.00;;;;;;6249791;22;20159;-79
2023/01/04 13:12:11;;;;;;;5.10;4.15;;;7.70;1.00;;;;;;6250447;23;20621;-79
2023/01/04 13:14:43;;;;;;;7.45;4.15;;;7.60;1.00;;;;;;6249159;23;20230;-79
2023/01/04 13:17:21;;;;;;;4.47;4.07;;;7.60;1.00;;;;;;6251168;23;20237;-80
2023/01/04 13:19:48;;;;;;;4.50;4.15;;;7.70;1.00;;;;;;6253819;22;20194;-79
2023/01/04 13:22:22;;;;;;;4.05;3.60;;;7.70;1.00;;;;;;6252571;23;20205;-77
2023/01/04 13:24:51;;;;;;;9.70;6.37;;;7.70;1.00;;;;;;6252156;23;20619;-79
2023/01/04 13:27:20;;;;;;;9.32;6.55;;;7.70;1.00;;;;;;6252334;23;20384;-78
2023/01/04 13:29:48;;;;;;;7.05;4.63;;;7.50;1.00;;;;;;6252735;22;20199;-79
2023/01/04 13:32:21;;;;;;;4.07;3.70;;;7.70;1.00;;;;;;6256535;23;20224;-80
2023/01/04 13:34:52;;;;;;;7.05;4.38;;;7.80;1.00;;;;;;6256216;23;20451;-80
2023/01/04 13:37:28;;;;;;;4.30;3.90;;;8.10;1.00;;;;;;6256974;23;20163;-80
2023/01/04 13:40:17;;;;;;;4.20;3.80;;;7.80;1.00;;;;;;6256315;22;20428;-80
2023/01/04 13:42:47;;;;;;;6.55;3.65;;;7.80;1.00;;;;;;6253391;23;20619;-82
2023/01/04 13:45:30;;;;;;;5.97;4.77;;;7.70;1.00;;;;;;6252200;23;20175;-85
2023/01/04 13:47:59;;;;;;;6.90;5.22;;;7.80;1.00;;;;;;6247863;23;20407;-79
2023/01/04 13:50:34;;;;;;;5.78;5.07;;;7.90;1.00;;;;;;6247659;22;20605;-78
2023/01/04 13:53:01;;;;;;;5.80;5.20;;;7.90;1.00;;;;;;6248721;23;20212;-78
2023/01/04 13:55:31;;;;;;;8.77;5.00;;;7.90;1.00;;;;;;6248748;23;20561;-78
2023/01/04 13:58:00;;;;;;;6.00;5.20;;;7.90;1.00;;;;;;6249632;23;20407;-80
2023/01/04 14:00:31;;;;;;;3.80;3.43;;;7.90;1.00;;;;;;6250565;22;20467;-80
2023/01/04 14:03:24;;;;;;;7.10;5.77;;;7.90;1.00;;;;;;6249430;23;20429;-80
2023/01/04 14:05:54;;;;;;;4.77;4.37;;;7.90;1.00;;;;;;6250368;23;20416;-80
2023/01/04 14:08:27;;;;;;;7.03;4.60;;;8.10;1.00;;;;;;6252564;23;20402;-80
2023/01/04 14:10:56;;;;;;;5.57;4.33;;;8.30;1.00;;;;;;6250319;22;21033;-80
2023/01/04 14:13:23;;;;;;;5.10;4.70;;;7.90;1.00;;;;;;6252343;23;20500;-79
2023/01/04 14:16:04;;;;;;;4.55;4.25;;;7.90;1.00;;;;;;6255125;23;20221;-79